Kraljevo, Serbia
Current Conditions -  °F | °C
As of 7:30 PM on Thursday 23 Oct 2014 (Local Time) from LYKV Reporting Station
Light Rain Light Rain  
Wind Chill: 45°   Ceiling: 1200
Heat Index: 45°   Visibility: 6mi
Dew Point: 45°   Wind: 0mph
Humidity: 100%   Direction: NA
Pressure: 29.74"   Gusts: NA
Location:  43.74°N, 20.67°E
Report Text: LYKV 231730Z 00000KT 9999 -RA BKN012 BKN027 07/07 Q1007 NOSIG
Loading
Personal Weather Stations






























Interactive Weather Map
Tropical Storm Tracking
New forecast layout! Learn more

10-Day Weather Forecast

Advertisements
Track Severe Weather on mobile